createdAt,value
2023-05-19T00:01:00.105Z,19.79
2023-05-19T00:03:29.619Z,19.79
2023-05-19T00:06:04.862Z,19.78
2023-05-19T00:08:34.469Z,19.77
2023-05-19T00:11:08.443Z,19.77
2023-05-19T00:13:38.195Z,19.77
2023-05-19T00:16:07.683Z,19.78
2023-05-19T00:18:37.976Z,19.77
2023-05-19T00:21:07.927Z,19.76
2023-05-19T00:23:34.560Z,19.76
2023-05-19T00:26:04.220Z,19.76
2023-05-19T00:28:34.229Z,19.76
2023-05-19T00:31:07.208Z,19.74
2023-05-19T00:33:34.296Z,19.74
2023-05-19T00:36:04.619Z,19.73
2023-05-19T00:38:32.009Z,19.73
2023-05-19T00:41:03.382Z,19.73
2023-05-19T00:43:31.769Z,19.72
2023-05-19T00:45:58.565Z,19.71
2023-05-19T00:48:31.076Z,19.72
2023-05-19T00:50:58.738Z,19.71
2023-05-19T00:53:25.387Z,19.70
2023-05-19T00:55:55.294Z,19.71
2023-05-19T00:58:22.433Z,19.70
2023-05-19T01:00:49.363Z,19.70
2023-05-19T01:03:19.154Z,19.69
2023-05-19T01:05:48.680Z,19.70
2023-05-19T01:08:18.650Z,19.68
2023-05-19T01:10:48.806Z,19.68
2023-05-19T01:13:21.296Z,19.68
2023-05-19T01:16:00.137Z,19.69
2023-05-19T01:18:39.123Z,19.67
2023-05-19T01:21:26.459Z,19.67
2023-05-19T01:24:13.358Z,19.67
2023-05-19T01:27:09.621Z,19.67
2023-05-19T01:29:46.152Z,19.66
2023-05-19T01:32:18.772Z,19.65
2023-05-19T01:34:52.330Z,19.64
2023-05-19T01:37:23.419Z,19.64
2023-05-19T01:39:54.108Z,19.64
2023-05-19T01:42:27.270Z,19.64
2023-05-19T01:44:57.833Z,19.62
2023-05-19T01:47:28.116Z,19.63
2023-05-19T01:49:58.335Z,19.62
2023-05-19T01:52:29.540Z,19.62
2023-05-19T01:54:58.105Z,19.61
2023-05-19T01:57:28.377Z,19.61
2023-05-19T02:00:16.931Z,19.61
2023-05-19T02:02:57.185Z,19.60
2023-05-19T02:05:28.965Z,19.60
2023-05-19T02:08:06.341Z,19.59
2023-05-19T02:10:38.844Z,19.59
2023-05-19T02:13:09.685Z,19.58
2023-05-19T02:15:43.912Z,19.60
2023-05-19T02:18:17.400Z,19.59
2023-05-19T02:20:47.471Z,19.58
2023-05-19T02:23:17.056Z,19.58
2023-05-19T02:25:43.748Z,19.58
2023-05-19T02:28:10.488Z,19.58
2023-05-19T02:30:40.138Z,19.57
2023-05-19T02:33:10.765Z,19.57
2023-05-19T02:35:37.664Z,19.55
2023-05-19T02:38:06.912Z,19.56
2023-05-19T02:40:33.935Z,19.56
2023-05-19T02:43:03.911Z,19.56
2023-05-19T02:45:36.779Z,19.55
2023-05-19T02:48:06.864Z,19.56
2023-05-19T02:50:39.292Z,19.54
2023-05-19T02:53:05.896Z,19.54
2023-05-19T02:55:39.376Z,19.53
2023-05-19T02:58:09.842Z,19.52
2023-05-19T03:00:37.242Z,19.53
2023-05-19T03:03:03.995Z,19.52
2023-05-19T03:05:30.908Z,19.53
2023-05-19T03:08:01.217Z,19.52
2023-05-19T03:10:33.738Z,19.52
2023-05-19T03:13:03.984Z,19.53
2023-05-19T03:15:37.095Z,19.51
2023-05-19T03:18:05.744Z,19.52
2023-05-19T03:20:32.588Z,19.51
2023-05-19T03:23:02.472Z,19.50
2023-05-19T03:25:30.275Z,19.48
2023-05-19T03:28:02.295Z,19.49
2023-05-19T03:30:29.062Z,19.48
2023-05-19T03:33:01.828Z,19.48
2023-05-19T03:35:31.533Z,19.47
2023-05-19T03:38:01.701Z,19.48
2023-05-19T03:40:30.441Z,19.47
2023-05-19T03:43:00.201Z,19.48
2023-05-19T03:45:30.333Z,19.48
2023-05-19T03:48:00.874Z,19.46
2023-05-19T03:50:29.538Z,19.46
2023-05-19T03:53:02.445Z,19.45
2023-05-19T03:55:32.376Z,19.45
2023-05-19T03:58:04.757Z,19.45
2023-05-19T04:00:31.718Z,19.44
2023-05-19T04:03:01.690Z,19.43
2023-05-19T04:05:29.001Z,19.44
2023-05-19T04:07:58.563Z,19.44
2023-05-19T04:10:28.367Z,19.45
2023-05-19T04:12:58.385Z,19.47
2023-05-19T04:15:25.589Z,19.46
2023-05-19T04:17:55.870Z,19.51
2023-05-19T04:20:29.385Z,19.52
2023-05-19T04:22:56.664Z,19.54
2023-05-19T04:25:26.874Z,19.56
2023-05-19T04:27:59.766Z,19.56
2023-05-19T04:30:26.826Z,19.59
2023-05-19T04:32:57.828Z,19.61
2023-05-19T04:35:28.320Z,19.65
2023-05-19T04:37:55.460Z,19.65
2023-05-19T04:40:25.992Z,19.66
2023-05-19T04:42:56.085Z,19.69
2023-05-19T04:45:29.591Z,19.70
2023-05-19T04:47:56.353Z,19.72
2023-05-19T04:50:26.236Z,19.73
2023-05-19T04:52:59.334Z,19.74
2023-05-19T04:55:32.006Z,19.74
2023-05-19T04:58:04.815Z,19.74
2023-05-19T05:00:34.985Z,19.74
2023-05-19T05:03:06.800Z,19.73
2023-05-19T05:05:33.551Z,19.74
2023-05-19T05:08:03.362Z,19.73
2023-05-19T05:10:33.570Z,19.73
2023-05-19T05:13:01.320Z,19.74
2023-05-19T05:15:28.118Z,19.72
2023-05-19T05:17:54.912Z,19.72
2023-05-19T05:20:22.341Z,19.73
2023-05-19T05:22:53.891Z,19.72
2023-05-19T05:25:23.396Z,19.71
2023-05-19T05:27:52.946Z,19.72
2023-05-19T05:30:23.585Z,19.72
2023-05-19T05:32:53.760Z,19.72
2023-05-19T05:35:21.349Z,19.74
2023-05-19T05:37:48.474Z,19.75
2023-05-19T05:40:16.714Z,19.75
2023-05-19T05:42:46.159Z,19.75
2023-05-19T05:45:15.680Z,19.74
2023-05-19T05:47:51.271Z,19.75
2023-05-19T05:50:21.468Z,19.75
2023-05-19T05:52:53.763Z,19.75
2023-05-19T05:55:27.018Z,19.74
2023-05-19T05:57:57.958Z,19.73
2023-05-19T06:00:25.056Z,19.73
2023-05-19T06:02:54.814Z,19.72
2023-05-19T06:05:28.461Z,19.73
2023-05-19T06:08:01.006Z,19.72
2023-05-19T06:10:34.349Z,19.70
2023-05-19T06:13:07.527Z,19.71
2023-05-19T06:15:37.317Z,19.71
2023-05-19T06:18:07.293Z,19.69
2023-05-19T06:20:37.689Z,19.69
2023-05-19T06:23:08.091Z,19.69
2023-05-19T06:25:34.946Z,19.69
2023-05-19T06:28:05.257Z,19.68
2023-05-19T06:30:35.282Z,19.68
2023-05-19T06:33:03.237Z,19.69
2023-05-19T06:35:33.412Z,19.68
2023-05-19T06:38:00.121Z,19.67
2023-05-19T06:40:27.054Z,19.66
2023-05-19T06:43:00.523Z,19.67
2023-05-19T06:45:27.721Z,19.66
2023-05-19T06:48:03.725Z,19.66
2023-05-19T06:50:36.065Z,19.64
2023-05-19T06:53:07.847Z,19.66
2023-05-19T06:55:50.442Z,19.64
2023-05-19T06:58:27.984Z,19.65
2023-05-19T07:01:00.769Z,19.62
2023-05-19T07:03:27.729Z,19.62
2023-05-19T07:05:54.698Z,19.61
2023-05-19T07:08:23.175Z,19.61
2023-05-19T07:10:55.944Z,19.61
2023-05-19T07:13:26.672Z,19.60
2023-05-19T07:15:56.769Z,19.60
2023-05-19T07:18:23.944Z,19.59
2023-05-19T07:20:53.902Z,19.60
2023-05-19T07:23:24.008Z,19.58
2023-05-19T07:25:59.820Z,19.58
2023-05-19T07:28:26.440Z,19.58
2023-05-19T07:30:58.788Z,19.57
2023-05-19T07:33:28.162Z,19.57
2023-05-19T07:35:54.934Z,19.57
2023-05-19T07:38:21.785Z,19.56
2023-05-19T07:40:49.026Z,19.55
2023-05-19T07:43:16.097Z,19.55
2023-05-19T07:45:48.479Z,19.55
2023-05-19T07:48:16.577Z,19.55
2023-05-19T07:50:49.100Z,19.55
2023-05-19T07:53:19.886Z,19.55
2023-05-19T07:55:52.912Z,19.54
2023-05-19T07:58:20.516Z,19.54
2023-05-19T08:00:49.773Z,19.53
2023-05-19T08:03:19.625Z,19.52
2023-05-19T08:05:46.482Z,19.51
2023-05-19T08:08:16.490Z,19.52
2023-05-19T08:10:46.219Z,19.52
2023-05-19T08:13:18.300Z,19.51
2023-05-19T08:15:51.463Z,19.50
2023-05-19T08:18:20.904Z,19.51
2023-05-19T08:20:56.889Z,19.50
2023-05-19T08:23:23.647Z,19.50
2023-05-19T08:25:54.936Z,19.50
2023-05-19T08:28:24.872Z,19.51
2023-05-19T08:30:57.289Z,19.51
2023-05-19T08:33:29.879Z,19.48
2023-05-19T08:36:00.079Z,19.49
2023-05-19T08:38:26.886Z,19.48
2023-05-19T08:40:54.283Z,19.46
2023-05-19T08:43:24.328Z,19.48
2023-05-19T08:45:52.529Z,19.47
2023-05-19T08:48:22.784Z,19.47
2023-05-19T08:50:57.638Z,19.47
2023-05-19T08:53:34.522Z,19.46
2023-05-19T08:56:04.951Z,19.46
2023-05-19T08:58:35.215Z,19.47
2023-05-19T09:01:07.554Z,19.46
2023-05-19T09:03:40.760Z,19.45
2023-05-19T09:06:12.595Z,19.46
2023-05-19T09:08:42.758Z,19.46
2023-05-19T09:11:13.184Z,19.46
2023-05-19T09:13:45.941Z,19.46
2023-05-19T09:16:16.098Z,19.45
2023-05-19T09:18:53.811Z,19.45
2023-05-19T09:21:28.835Z,19.45
2023-05-19T09:23:58.093Z,19.45
2023-05-19T09:26:24.976Z,19.44
2023-05-19T09:28:55.500Z,19.46
2023-05-19T09:31:32.262Z,19.45
2023-05-19T09:34:02.222Z,19.46
2023-05-19T09:36:35.549Z,19.46
2023-05-19T09:39:12.807Z,19.46
2023-05-19T09:41:42.594Z,19.46
2023-05-19T09:44:21.375Z,19.46
2023-05-19T09:46:52.153Z,19.45
2023-05-19T09:49:22.749Z,19.45
2023-05-19T09:52:03.163Z,19.46
2023-05-19T09:54:30.425Z,19.45
2023-05-19T09:57:00.229Z,19.46
2023-05-19T09:59:33.009Z,19.47
2023-05-19T10:02:01.249Z,19.45
2023-05-19T10:04:29.323Z,19.47
2023-05-19T10:07:00.122Z,19.47
2023-05-19T10:09:32.359Z,19.47
2023-05-19T10:11:59.184Z,19.48
2023-05-19T10:14:27.349Z,19.49
2023-05-19T10:17:01.046Z,19.51
2023-05-19T10:19:30.996Z,19.52
2023-05-19T10:21:57.909Z,19.53
2023-05-19T10:24:27.431Z,19.54
2023-05-19T10:27:01.386Z,19.54
2023-05-19T10:29:33.364Z,19.56
2023-05-19T10:32:04.196Z,19.55
2023-05-19T10:34:52.638Z,19.56
2023-05-19T10:37:24.216Z,19.56
2023-05-19T10:39:53.150Z,19.55
2023-05-19T10:42:32.585Z,19.54
2023-05-19T10:45:17.338Z,19.56
2023-05-19T10:47:45.179Z,19.54
2023-05-19T10:50:15.814Z,19.55
2023-05-19T10:52:45.774Z,19.54
2023-05-19T10:55:19.019Z,19.54
2023-05-19T10:57:58.502Z,19.54
2023-05-19T11:00:29.249Z,19.54
2023-05-19T11:03:12.872Z,19.54
2023-05-19T11:05:45.107Z,19.53
2023-05-19T11:08:15.153Z,19.54
2023-05-19T11:10:45.266Z,19.54
2023-05-19T11:13:23.208Z,19.54
2023-05-19T11:15:52.905Z,19.55
2023-05-19T11:18:22.558Z,19.54
2023-05-19T11:20:56.297Z,19.54
2023-05-19T11:23:26.199Z,19.54
2023-05-19T11:25:52.833Z,19.54
2023-05-19T11:28:24.650Z,19.55
2023-05-19T11:30:55.538Z,19.55
2023-05-19T11:33:28.058Z,19.55
2023-05-19T11:36:00.562Z,19.54
2023-05-19T11:38:29.036Z,19.53
2023-05-19T11:40:58.537Z,19.54
2023-05-19T11:43:31.573Z,19.53
2023-05-19T11:46:00.868Z,19.53
2023-05-19T11:48:32.032Z,19.54
2023-05-19T11:51:02.604Z,19.54
2023-05-19T11:53:34.034Z,19.55
2023-05-19T11:56:05.653Z,19.55
2023-05-19T11:58:37.183Z,19.55
2023-05-19T12:01:06.989Z,19.55
2023-05-19T12:03:37.271Z,19.54
2023-05-19T12:06:10.071Z,19.53
2023-05-19T12:08:37.410Z,19.53
2023-05-19T12:11:06.801Z,19.53
2023-05-19T12:13:36.609Z,19.53
2023-05-19T12:16:04.612Z,19.53
2023-05-19T12:18:34.363Z,19.53
2023-05-19T12:21:01.166Z,19.52
2023-05-19T12:23:34.252Z,19.53
2023-05-19T12:26:03.977Z,19.53
2023-05-19T12:28:33.951Z,19.53
2023-05-19T12:31:05.966Z,19.52
2023-05-19T12:33:33.663Z,19.53
2023-05-19T12:36:05.649Z,19.53
2023-05-19T12:38:38.599Z,19.53
2023-05-19T12:41:11.448Z,19.52
2023-05-19T12:43:39.983Z,19.53
2023-05-19T12:46:18.920Z,19.53
2023-05-19T12:48:49.347Z,19.52
2023-05-19T12:51:17.004Z,19.52
2023-05-19T12:53:50.521Z,19.52
2023-05-19T12:56:20.458Z,19.52
2023-05-19T12:58:53.435Z,19.52
2023-05-19T13:01:25.196Z,19.52
2023-05-19T13:03:55.689Z,19.51
2023-05-19T13:06:26.482Z,19.51
2023-05-19T13:08:55.658Z,19.52
2023-05-19T13:11:29.375Z,19.52
2023-05-19T13:13:59.251Z,19.51
2023-05-19T13:16:29.214Z,19.51
2023-05-19T13:18:55.870Z,19.51
2023-05-19T13:21:26.147Z,19.51
2023-05-19T13:23:53.405Z,19.52
2023-05-19T13:26:20.292Z,19.52
2023-05-19T13:28:47.005Z,19.52
2023-05-19T13:31:16.232Z,19.52
2023-05-19T13:33:45.411Z,19.53
2023-05-19T13:36:15.298Z,19.53
2023-05-19T13:38:45.392Z,19.54
2023-05-19T13:41:13.758Z,19.53
2023-05-19T13:43:43.880Z,19.52
2023-05-19T13:46:13.923Z,19.53
2023-05-19T13:48:40.791Z,19.53
2023-05-19T13:51:07.517Z,19.53
2023-05-19T13:53:37.971Z,19.53
2023-05-19T13:56:08.127Z,19.53
2023-05-19T13:58:34.892Z,19.53
2023-05-19T14:01:08.077Z,19.52
2023-05-19T14:03:37.783Z,19.51
2023-05-19T14:06:07.991Z,19.53
2023-05-19T14:08:34.698Z,19.53
2023-05-19T14:11:01.451Z,19.54
2023-05-19T14:13:33.005Z,19.56
2023-05-19T14:16:04.876Z,19.57
2023-05-19T14:18:32.168Z,19.57
2023-05-19T14:21:01.888Z,19.60
2023-05-19T14:23:28.614Z,19.62
2023-05-19T14:25:58.249Z,19.62
2023-05-19T14:28:30.556Z,19.66
2023-05-19T14:31:03.329Z,19.68
2023-05-19T14:33:36.074Z,19.68
2023-05-19T14:36:06.040Z,19.70
2023-05-19T14:38:32.851Z,19.71
2023-05-19T14:41:06.337Z,19.73
2023-05-19T14:43:36.383Z,19.74
2023-05-19T14:46:03.147Z,19.75
2023-05-19T14:48:33.341Z,19.78
2023-05-19T14:51:03.869Z,19.78
2023-05-19T14:53:33.121Z,19.80
2023-05-19T14:56:07.907Z,19.81
2023-05-19T14:58:38.037Z,19.84
2023-05-19T15:01:05.264Z,19.86
2023-05-19T15:03:31.922Z,19.83
2023-05-19T15:06:02.069Z,19.88
2023-05-19T15:08:34.504Z,19.90
2023-05-19T15:11:09.158Z,19.91
2023-05-19T15:13:35.967Z,19.92
2023-05-19T15:16:16.894Z,19.93
2023-05-19T15:18:47.941Z,19.93
2023-05-19T15:21:18.006Z,19.92
2023-05-19T15:23:44.836Z,19.93
2023-05-19T15:26:17.200Z,19.96
2023-05-19T15:28:44.114Z,19.99
2023-05-19T15:31:10.810Z,19.99
2023-05-19T15:33:40.794Z,20.00
2023-05-19T15:36:07.505Z,20.03
2023-05-19T15:38:38.928Z,20.02
2023-05-19T15:41:08.877Z,20.04
2023-05-19T15:43:42.014Z,20.05
2023-05-19T15:46:12.029Z,20.07
2023-05-19T15:48:41.725Z,20.08
2023-05-19T15:51:08.534Z,20.09
2023-05-19T15:53:38.405Z,20.11
2023-05-19T15:56:08.231Z,20.14
2023-05-19T15:58:38.274Z,20.14
2023-05-19T16:01:05.373Z,20.17
2023-05-19T16:03:35.362Z,20.18
2023-05-19T16:06:07.917Z,20.17
2023-05-19T16:08:40.016Z,20.18
2023-05-19T16:11:13.453Z,20.18
2023-05-19T16:13:43.472Z,20.17
2023-05-19T16:16:10.666Z,20.18
2023-05-19T16:18:43.886Z,20.17
2023-05-19T16:21:14.089Z,20.16
2023-05-19T16:23:46.414Z,20.13
2023-05-19T16:26:15.834Z,20.14
2023-05-19T16:28:46.021Z,20.13
2023-05-19T16:31:19.018Z,20.13
2023-05-19T16:33:51.531Z,20.14
2023-05-19T16:36:21.733Z,20.15
2023-05-19T16:38:48.732Z,20.16
2023-05-19T16:41:17.840Z,20.15
2023-05-19T16:43:47.640Z,20.16
2023-05-19T16:46:17.635Z,20.17
2023-05-19T16:48:50.139Z,20.19
2023-05-19T16:51:17.103Z,20.21
2023-05-19T16:53:43.845Z,20.21
2023-05-19T16:56:12.663Z,20.22
2023-05-19T16:58:42.800Z,20.24
2023-05-19T17:01:12.896Z,20.26
2023-05-19T17:03:45.609Z,20.26
2023-05-19T17:06:12.346Z,20.28
2023-05-19T17:08:45.220Z,20.28
2023-05-19T17:11:15.899Z,20.28
2023-05-19T17:13:42.632Z,20.29
2023-05-19T17:16:09.550Z,20.29
2023-05-19T17:18:36.927Z,20.30
2023-05-19T17:21:06.986Z,20.30
2023-05-19T17:23:39.361Z,20.31
2023-05-19T17:26:11.680Z,20.30
2023-05-19T17:28:41.114Z,20.29
2023-05-19T17:31:14.683Z,20.29
2023-05-19T17:33:41.691Z,20.27
2023-05-19T17:36:11.121Z,20.26
2023-05-19T17:38:37.933Z,20.26
2023-05-19T17:41:04.882Z,20.23
2023-05-19T17:43:31.671Z,20.21
2023-05-19T17:46:04.475Z,20.22
2023-05-19T17:48:31.516Z,20.22
2023-05-19T17:50:59.291Z,20.22
2023-05-19T17:53:29.637Z,20.22
2023-05-19T17:56:05.533Z,20.23
2023-05-19T17:58:35.432Z,20.23
2023-05-19T18:01:06.001Z,20.23
2023-05-19T18:03:36.346Z,20.26
2023-05-19T18:06:09.905Z,20.26
2023-05-19T18:08:43.782Z,20.26
2023-05-19T18:11:17.473Z,20.27
2023-05-19T18:13:47.423Z,20.30
2023-05-19T18:16:14.234Z,20.30
2023-05-19T18:18:40.989Z,20.30
2023-05-19T18:21:11.074Z,20.32
2023-05-19T18:23:38.600Z,20.31
2023-05-19T18:26:05.252Z,20.30
2023-05-19T18:28:35.983Z,20.30
2023-05-19T18:31:05.973Z,20.30
2023-05-19T18:33:35.863Z,20.29
2023-05-19T18:36:02.492Z,20.28
2023-05-19T18:38:29.671Z,20.28
2023-05-19T18:40:56.441Z,20.27
2023-05-19T18:43:25.882Z,20.25
2023-05-19T18:45:55.809Z,20.24
2023-05-19T18:48:26.369Z,20.23
2023-05-19T18:50:53.072Z,20.23
2023-05-19T18:53:26.015Z,20.22
2023-05-19T18:55:57.078Z,20.21
2023-05-19T18:58:27.299Z,20.22
2023-05-19T19:01:00.759Z,20.21
2023-05-19T19:03:27.478Z,20.21
2023-05-19T19:05:58.362Z,20.22
2023-05-19T19:08:30.036Z,20.24
2023-05-19T19:10:59.379Z,20.23
2023-05-19T19:13:29.174Z,20.25
2023-05-19T19:15:55.933Z,20.26
2023-05-19T19:18:28.594Z,20.25
2023-05-19T19:21:01.394Z,20.25
2023-05-19T19:23:31.607Z,20.24
2023-05-19T19:26:02.403Z,20.20
2023-05-19T19:28:35.243Z,20.20
2023-05-19T19:31:05.412Z,20.21
2023-05-19T19:33:37.783Z,20.19
2023-05-19T19:36:04.898Z,20.19
2023-05-19T19:38:31.662Z,20.18
2023-05-19T19:40:58.953Z,20.18
2023-05-19T19:43:32.285Z,20.18
2023-05-19T19:46:03.136Z,20.17
2023-05-19T19:48:36.584Z,20.13
2023-05-19T19:51:05.673Z,20.13
2023-05-19T19:53:32.490Z,20.13
2023-05-19T19:55:59.760Z,20.12
2023-05-19T19:58:29.716Z,20.10
2023-05-19T20:01:00.460Z,20.07
2023-05-19T20:03:30.883Z,20.07
2023-05-19T20:05:57.621Z,20.05
2023-05-19T20:08:27.829Z,20.06
2023-05-19T20:10:58.030Z,20.05
2023-05-19T20:13:32.732Z,20.04
2023-05-19T20:16:01.312Z,20.04
2023-05-19T20:18:30.716Z,20.04
2023-05-19T20:21:00.052Z,20.02
2023-05-19T20:23:30.104Z,20.03
2023-05-19T20:26:10.856Z,20.02
2023-05-19T20:28:41.807Z,20.02
2023-05-19T20:31:11.703Z,20.01
2023-05-19T20:33:43.244Z,20.00
2023-05-19T20:36:12.604Z,20.00
2023-05-19T20:38:39.320Z,19.99
2023-05-19T20:41:09.732Z,19.98
2023-05-19T20:43:36.857Z,19.98
2023-05-19T20:46:03.978Z,19.96
2023-05-19T20:48:30.914Z,19.97
2023-05-19T20:51:00.756Z,19.98
2023-05-19T20:53:30.728Z,19.96
2023-05-19T20:55:58.221Z,19.95
2023-05-19T20:58:28.235Z,19.95
2023-05-19T21:00:54.865Z,19.96
2023-05-19T21:03:23.468Z,19.94
2023-05-19T21:05:56.988Z,19.95
2023-05-19T21:08:27.145Z,19.94
2023-05-19T21:10:59.577Z,19.93
2023-05-19T21:13:32.186Z,19.92
2023-05-19T21:16:01.980Z,19.90
2023-05-19T21:18:28.648Z,19.91
2023-05-19T21:21:03.607Z,19.90
2023-05-19T21:23:30.680Z,19.90
2023-05-19T21:26:00.395Z,19.90
2023-05-19T21:28:34.083Z,19.91
2023-05-19T21:31:00.907Z,19.89
2023-05-19T21:33:32.882Z,19.88
2023-05-19T21:36:03.769Z,19.88
2023-05-19T21:38:30.794Z,19.89
2023-05-19T21:41:00.946Z,19.88
2023-05-19T21:43:30.606Z,19.90
2023-05-19T21:46:00.715Z,19.87
2023-05-19T21:48:30.687Z,19.87
2023-05-19T21:51:00.743Z,19.88
2023-05-19T21:53:28.063Z,19.87
2023-05-19T21:55:58.337Z,19.87
2023-05-19T21:58:25.286Z,19.87
2023-05-19T22:00:55.272Z,19.86
2023-05-19T22:03:31.504Z,19.86
2023-05-19T22:06:04.170Z,19.86
2023-05-19T22:08:33.868Z,19.85
2023-05-19T22:11:02.288Z,19.85
2023-05-19T22:13:34.741Z,19.85
2023-05-19T22:16:01.512Z,19.84
2023-05-19T22:18:31.282Z,19.84
2023-05-19T22:21:01.127Z,19.84
2023-05-19T22:23:30.271Z,19.83
2023-05-19T22:25:59.790Z,19.83
2023-05-19T22:28:29.195Z,19.82
2023-05-19T22:30:58.775Z,19.80
2023-05-19T22:33:25.533Z,19.81
2023-05-19T22:35:52.214Z,19.81
2023-05-19T22:38:19.099Z,19.81
2023-05-19T22:40:45.866Z,19.82
2023-05-19T22:43:21.083Z,19.82
2023-05-19T22:45:48.877Z,19.81
2023-05-19T22:48:19.046Z,19.81
2023-05-19T22:50:55.221Z,19.80
2023-05-19T22:53:24.770Z,19.79
2023-05-19T22:55:54.060Z,19.79
2023-05-19T22:58:20.778Z,19.80
2023-05-19T23:00:53.798Z,19.80
2023-05-19T23:03:20.636Z,19.79
2023-05-19T23:05:47.390Z,19.78
2023-05-19T23:08:16.921Z,19.78
2023-05-19T23:10:43.984Z,19.77
2023-05-19T23:13:18.684Z,19.77
2023-05-19T23:15:48.904Z,19.78
2023-05-19T23:18:15.628Z,19.77
2023-05-19T23:20:45.403Z,19.77
2023-05-19T23:23:12.240Z,19.77
2023-05-19T23:25:42.556Z,19.76
2023-05-19T23:28:12.643Z,19.76
2023-05-19T23:30:43.304Z,19.75
2023-05-19T23:33:12.916Z,19.76
2023-05-19T23:35:39.649Z,19.77
2023-05-19T23:38:06.397Z,19.76
2023-05-19T23:40:39.200Z,19.76
2023-05-19T23:43:06.208Z,19.75
2023-05-19T23:45:42.083Z,19.75
2023-05-19T23:48:08.971Z,19.74
2023-05-19T23:50:37.815Z,19.74
2023-05-19T23:53:08.007Z,19.73
2023-05-19T23:55:38.959Z,19.72
2023-05-19T23:58:06.288Z,19.73
